Sevilla Airport

LEZL | SVQ

Sevilla , Andalusia , Spain

Monday, January 27th, 2020 | 00:40

Weather

LEZL 262330Z 00000KT 4000 BR NSC 09/09 Q1027 NOSIG

Charts

No Charts Available

Gates

95 Available

Runways

1 Available

Events

No events for this airport


New event